sensor_id;sensor_type;location;lat;lon;timestamp;pressure;altitude;pressure_sealevel;temperature;humidity
64292;BME280;50628;51.008;13.658;2022-07-23T00:00:15;99782.72;;;20.21;69.95
64292;BME280;50628;51.008;13.658;2022-07-23T00:05:17;99770.75;;;20.03;70.77
64292;BME280;50628;51.008;13.658;2022-07-23T00:10:19;99781.41;;;19.95;71.10
64292;BME280;50628;51.008;13.658;2022-07-23T00:15:22;99766.00;;;19.99;71.38
64292;BME280;50628;51.008;13.658;2022-07-23T00:20:24;99774.84;;;19.91;71.24
64292;BME280;50628;51.008;13.658;2022-07-23T00:25:26;99763.00;;;20.02;70.56
64292;BME280;50628;51.008;13.658;2022-07-23T00:30:30;99756.00;;;19.79;71.11
64292;BME280;50628;51.008;13.658;2022-07-23T00:35:34;99764.66;;;19.73;71.49
64292;BME280;50628;51.008;13.658;2022-07-23T00:40:37;99752.91;;;19.61;71.56
64292;BME280;50628;51.008;13.658;2022-07-23T00:45:40;99759.53;;;19.57;71.73
64292;BME280;50628;51.008;13.658;2022-07-23T00:50:42;99773.81;;;19.48;72.02
64292;BME280;50628;51.008;13.658;2022-07-23T00:55:44;99768.16;;;19.36;72.77
64292;BME280;50628;51.008;13.658;2022-07-23T01:00:47;99753.69;;;19.32;73.10
64292;BME280;50628;51.008;13.658;2022-07-23T01:05:49;99764.22;;;19.32;73.11
64292;BME280;50628;51.008;13.658;2022-07-23T01:10:51;99749.56;;;19.29;73.77
64292;BME280;50628;51.008;13.658;2022-07-23T01:15:54;99741.78;;;19.36;73.04
64292;BME280;50628;51.008;13.658;2022-07-23T01:20:57;99726.91;;;19.35;73.22
64292;BME280;50628;51.008;13.658;2022-07-23T01:26:00;99727.28;;;19.32;73.59
64292;BME280;50628;51.008;13.658;2022-07-23T01:31:03;99708.44;;;19.35;73.56
64292;BME280;50628;51.008;13.658;2022-07-23T01:36:09;99704.06;;;19.27;74.40
64292;BME280;50628;51.008;13.658;2022-07-23T01:41:12;99695.44;;;19.18;74.73
64292;BME280;50628;51.008;13.658;2022-07-23T01:46:14;99689.50;;;19.16;74.83
64292;BME280;50628;51.008;13.658;2022-07-23T01:51:20;99675.03;;;19.12;74.57
64292;BME280;50628;51.008;13.658;2022-07-23T01:56:32;99683.97;;;19.11;74.04
64292;BME280;50628;51.008;13.658;2022-07-23T02:01:34;99679.97;;;19.15;74.12
64292;BME280;50628;51.008;13.658;2022-07-23T02:06:37;99664.84;;;19.09;74.88
64292;BME280;50628;51.008;13.658;2022-07-23T02:11:40;99669.56;;;18.99;75.45
64292;BME280;50628;51.008;13.658;2022-07-23T02:16:42;99677.19;;;18.94;75.65
64292;BME280;50628;51.008;13.658;2022-07-23T02:21:44;99676.75;;;18.90;75.53
64292;BME280;50628;51.008;13.658;2022-07-23T02:26:47;99657.66;;;18.88;75.59
64292;BME280;50628;51.008;13.658;2022-07-23T02:31:49;99670.09;;;18.94;75.18
64292;BME280;50628;51.008;13.658;2022-07-23T02:36:51;99668.19;;;18.88;75.42
64292;BME280;50628;51.008;13.658;2022-07-23T02:41:54;99654.09;;;18.81;76.13
64292;BME280;50628;51.008;13.658;2022-07-23T02:46:56;99652.31;;;18.73;76.20
64292;BME280;50628;51.008;13.658;2022-07-23T02:51:57;99642.13;;;18.70;76.45
64292;BME280;50628;51.008;13.658;2022-07-23T02:57:02;99642.13;;;18.70;76.82
64292;BME280;50628;51.008;13.658;2022-07-23T03:02:04;99652.19;;;18.67;77.25
64292;BME280;50628;51.008;13.658;2022-07-23T03:07:06;99638.44;;;18.56;77.52
64292;BME280;50628;51.008;13.658;2022-07-23T03:12:09;99640.44;;;18.54;77.46
64292;BME280;50628;51.008;13.658;2022-07-23T03:17:11;99642.44;;;18.75;76.52
64292;BME280;50628;51.008;13.658;2022-07-23T03:22:13;99634.28;;;18.85;75.79
64292;BME280;50628;51.008;13.658;2022-07-23T03:27:16;99645.31;;;18.66;76.66
64292;BME280;50628;51.008;13.658;2022-07-23T03:32:17;99627.94;;;18.71;76.89
64292;BME280;50628;51.008;13.658;2022-07-23T03:37:20;99619.59;;;18.68;76.95
64292;BME280;50628;51.008;13.658;2022-07-23T03:42:23;99628.78;;;18.49;77.58
64292;BME280;50628;51.008;13.658;2022-07-23T03:47:25;99624.28;;;18.57;77.42
64292;BME280;50628;51.008;13.658;2022-07-23T03:52:27;99630.69;;;18.40;78.73
64292;BME280;50628;51.008;13.658;2022-07-23T03:57:30;99622.56;;;18.65;77.86
64292;BME280;50628;51.008;13.658;2022-07-23T04:02:32;99636.84;;;18.70;77.68
64292;BME280;50628;51.008;13.658;2022-07-23T04:07:34;99612.13;;;18.71;77.53
64292;BME280;50628;51.008;13.658;2022-07-23T04:12:37;99602.69;;;18.77;77.19
64292;BME280;50628;51.008;13.658;2022-07-23T04:17:39;99605.00;;;18.80;77.29
64292;BME280;50628;51.008;13.658;2022-07-23T04:22:41;99617.09;;;18.89;77.11
64292;BME280;50628;51.008;13.658;2022-07-23T04:27:44;99619.63;;;18.97;77.38
64292;BME280;50628;51.008;13.658;2022-07-23T04:32:46;99622.25;;;18.97;78.19
64292;BME280;50628;51.008;13.658;2022-07-23T04:37:55;99628.72;;;19.10;79.02
64292;BME280;50628;51.008;13.658;2022-07-23T04:42:59;99621.84;;;19.23;79.90
64292;BME280;50628;51.008;13.658;2022-07-23T04:48:01;99622.72;;;19.45;79.39
64292;BME280;50628;51.008;13.658;2022-07-23T04:53:04;99627.84;;;18.88;81.60
64292;BME280;50628;51.008;13.658;2022-07-23T04:58:08;99620.81;;;18.95;81.15
64292;BME280;50628;51.008;13.658;2022-07-23T05:03:10;99610.63;;;18.92;81.52
64292;BME280;50628;51.008;13.658;2022-07-23T05:08:12;99618.63;;;19.43;79.40
64292;BME280;50628;51.008;13.658;2022-07-23T05:13:17;99638.66;;;19.22;79.70
64292;BME280;50628;51.008;13.658;2022-07-23T05:18:19;99634.28;;;19.30;79.27
64292;BME280;50628;51.008;13.658;2022-07-23T05:23:21;99645.31;;;19.18;80.05
64292;BME280;50628;51.008;13.658;2022-07-23T05:28:25;99650.69;;;19.10;80.14
64292;BME280;50628;51.008;13.658;2022-07-23T05:33:28;99642.66;;;19.03;80.33
64292;BME280;50628;51.008;13.658;2022-07-23T05:38:31;99667.50;;;19.24;80.02
64292;BME280;50628;51.008;13.658;2022-07-23T05:43:35;99714.00;;;19.10;80.39
64292;BME280;50628;51.008;13.658;2022-07-23T05:48:43;99707.00;;;18.79;81.09
64292;BME280;50628;51.008;13.658;2022-07-23T05:54:12;99718.31;;;18.88;81.02
64292;BME280;50628;51.008;13.658;2022-07-23T05:59:15;99735.31;;;18.86;80.75
64292;BME280;50628;51.008;13.658;2022-07-23T06:04:17;99745.72;;;18.79;80.49
64292;BME280;50628;51.008;13.658;2022-07-23T06:09:29;99746.13;;;18.68;80.87
64292;BME280;50628;51.008;13.658;2022-07-23T06:14:32;99740.66;;;18.77;80.10
64292;BME280;50628;51.008;13.658;2022-07-23T06:19:34;99768.91;;;18.60;81.19
64292;BME280;50628;51.008;13.658;2022-07-23T06:24:36;99769.88;;;18.91;79.51
64292;BME280;50628;51.008;13.658;2022-07-23T06:29:40;99785.88;;;18.35;81.53
64292;BME280;50628;51.008;13.658;2022-07-23T06:34:42;99785.41;;;18.54;80.62
64292;BME280;50628;51.008;13.658;2022-07-23T06:39:43;99786.84;;;18.65;79.89
64292;BME280;50628;51.008;13.658;2022-07-23T06:44:47;99790.00;;;18.60;79.88
64292;BME280;50628;51.008;13.658;2022-07-23T06:49:51;99785.34;;;18.94;78.44
64292;BME280;50628;51.008;13.658;2022-07-23T06:54:52;99775.25;;;18.97;77.93
64292;BME280;50628;51.008;13.658;2022-07-23T06:59:56;99774.44;;;18.97;77.24
64292;BME280;50628;51.008;13.658;2022-07-23T07:04:57;99784.38;;;19.10;76.71
64292;BME280;50628;51.008;13.658;2022-07-23T07:10:02;99751.84;;;19.32;75.45
64292;BME280;50628;51.008;13.658;2022-07-23T07:15:05;99737.31;;;19.51;75.03
64292;BME280;50628;51.008;13.658;2022-07-23T07:20:08;99725.06;;;19.73;73.60
64292;BME280;50628;51.008;13.658;2022-07-23T07:25:10;99724.47;;;19.93;73.15
64292;BME280;50628;51.008;13.658;2022-07-23T07:30:14;99751.63;;;19.72;73.31
64292;BME280;50628;51.008;13.658;2022-07-23T07:35:15;99748.69;;;19.66;73.81
64292;BME280;50628;51.008;13.658;2022-07-23T07:40:18;99769.66;;;19.98;72.59
64292;BME280;50628;51.008;13.658;2022-07-23T07:45:22;99771.19;;;20.43;70.53
64292;BME280;50628;51.008;13.658;2022-07-23T07:50:25;99757.59;;;20.83;68.10
64292;BME280;50628;51.008;13.658;2022-07-23T07:55:27;99753.75;;;20.85;68.11
64292;BME280;50628;51.008;13.658;2022-07-23T08:00:30;99729.44;;;21.25;66.49
64292;BME280;50628;51.008;13.658;2022-07-23T08:05:33;99733.44;;;21.83;64.87
64292;BME280;50628;51.008;13.658;2022-07-23T08:10:35;99740.22;;;21.93;64.31
64292;BME280;50628;51.008;13.658;2022-07-23T08:15:39;99722.47;;;21.52;65.83
64292;BME280;50628;51.008;13.658;2022-07-23T08:20:40;99718.72;;;22.22;63.76
64292;BME280;50628;51.008;13.658;2022-07-23T08:25:42;99721.91;;;21.98;63.55
64292;BME280;50628;51.008;13.658;2022-07-23T08:30:45;99721.41;;;21.81;64.67
64292;BME280;50628;51.008;13.658;2022-07-23T08:35:49;99726.69;;;22.29;63.65
64292;BME280;50628;51.008;13.658;2022-07-23T08:40:54;99721.41;;;22.42;62.72
64292;BME280;50628;51.008;13.658;2022-07-23T08:46:00;99723.91;;;22.64;61.51
64292;BME280;50628;51.008;13.658;2022-07-23T08:51:03;99727.94;;;22.40;62.57
64292;BME280;50628;51.008;13.658;2022-07-23T08:56:05;99731.47;;;22.94;60.70
64292;BME280;50628;51.008;13.658;2022-07-23T09:01:09;99729.88;;;23.06;60.58
64292;BME280;50628;51.008;13.658;2022-07-23T09:06:10;99724.47;;;23.46;59.25
64292;BME280;50628;51.008;13.658;2022-07-23T09:11:15;99728.75;;;23.60;58.63
64292;BME280;50628;51.008;13.658;2022-07-23T09:16:23;99740.25;;;23.34;59.45
64292;BME280;50628;51.008;13.658;2022-07-23T09:21:27;99730.81;;;23.51;58.79
64292;BME280;50628;51.008;13.658;2022-07-23T09:26:35;99730.50;;;23.86;57.54
64292;BME280;50628;51.008;13.658;2022-07-23T09:31:49;99727.41;;;23.96;57.29
64292;BME280;50628;51.008;13.658;2022-07-23T09:36:53;99729.06;;;23.97;57.47
64292;BME280;50628;51.008;13.658;2022-07-23T09:41:55;99753.34;;;23.29;59.39
64292;BME280;50628;51.008;13.658;2022-07-23T09:46:59;99755.72;;;23.77;57.87
64292;BME280;50628;51.008;13.658;2022-07-23T09:52:02;99758.38;;;23.64;58.27
64292;BME280;50628;51.008;13.658;2022-07-23T09:57:06;99754.94;;;24.15;56.89
64292;BME280;50628;51.008;13.658;2022-07-23T10:02:11;99754.88;;;24.28;56.26
64292;BME280;50628;51.008;13.658;2022-07-23T10:07:37;99764.34;;;24.17;56.12
64292;BME280;50628;51.008;13.658;2022-07-23T10:13:14;99770.84;;;24.22;56.31
64292;BME280;50628;51.008;13.658;2022-07-23T10:18:45;99767.59;;;24.65;54.63
64292;BME280;50628;51.008;13.658;2022-07-23T10:23:57;99765.97;;;24.18;56.11
64292;BME280;50628;51.008;13.658;2022-07-23T10:29:08;99781.44;;;23.83;57.10
64292;BME280;50628;51.008;13.658;2022-07-23T10:34:20;99792.47;;;24.38;55.72
64292;BME280;50628;51.008;13.658;2022-07-23T10:39:24;99796.88;;;24.65;54.76
64292;BME280;50628;51.008;13.658;2022-07-23T10:44:38;99790.06;;;24.24;55.83
64292;BME280;50628;51.008;13.658;2022-07-23T10:49:43;99795.19;;;24.25;55.79
64292;BME280;50628;51.008;13.658;2022-07-23T10:54:46;99793.69;;;24.43;54.67
64292;BME280;50628;51.008;13.658;2022-07-23T11:05:41;99793.84;;;25.61;51.62
64292;BME280;50628;51.008;13.658;2022-07-23T11:10:46;99778.38;;;26.07;50.20
64292;BME280;50628;51.008;13.658;2022-07-23T11:16:04;99790.03;;;25.94;50.14
64292;BME280;50628;51.008;13.658;2022-07-23T11:26:56;99795.81;;;24.66;54.45
64292;BME280;50628;51.008;13.658;2022-07-23T11:31:59;99796.09;;;24.44;55.52
64292;BME280;50628;51.008;13.658;2022-07-23T11:37:06;99800.66;;;24.37;55.85
64292;BME280;50628;51.008;13.658;2022-07-23T11:42:09;99806.38;;;24.34;56.63
64292;BME280;50628;51.008;13.658;2022-07-23T11:47:11;99802.19;;;24.19;58.08
64292;BME280;50628;51.008;13.658;2022-07-23T11:52:14;99801.94;;;24.28;58.25
64292;BME280;50628;51.008;13.658;2022-07-23T11:57:18;99813.34;;;23.70;60.06
64292;BME280;50628;51.008;13.658;2022-07-23T12:02:21;99822.56;;;23.27;61.44
64292;BME280;50628;51.008;13.658;2022-07-23T12:07:29;99808.63;;;22.92;62.62
64292;BME280;50628;51.008;13.658;2022-07-23T12:12:40;99808.19;;;22.68;64.02
64292;BME280;50628;51.008;13.658;2022-07-23T12:17:45;99829.13;;;23.11;63.51
64292;BME280;50628;51.008;13.658;2022-07-23T12:22:49;99831.47;;;22.73;65.27
64292;BME280;50628;51.008;13.658;2022-07-23T12:28:01;99832.84;;;22.08;67.68
64292;BME280;50628;51.008;13.658;2022-07-23T12:33:04;99842.31;;;22.78;65.58
64292;BME280;50628;51.008;13.658;2022-07-23T12:38:08;99840.31;;;23.60;62.93
64292;BME280;50628;51.008;13.658;2022-07-23T12:43:19;99840.72;;;23.10;64.62
64292;BME280;50628;51.008;13.658;2022-07-23T12:48:23;99816.56;;;24.89;58.82
64292;BME280;50628;51.008;13.658;2022-07-23T12:53:27;99824.66;;;24.69;58.86
64292;BME280;50628;51.008;13.658;2022-07-23T12:58:42;99824.69;;;24.17;60.15
64292;BME280;50628;51.008;13.658;2022-07-23T13:03:55;99828.47;;;24.41;59.27
64292;BME280;50628;51.008;13.658;2022-07-23T13:08:57;99836.16;;;24.11;59.80
64292;BME280;50628;51.008;13.658;2022-07-23T13:14:01;99838.88;;;23.71;61.00
64292;BME280;50628;51.008;13.658;2022-07-23T13:19:03;99843.69;;;24.27;59.48
64292;BME280;50628;51.008;13.658;2022-07-23T13:24:05;99831.00;;;24.99;57.16
64292;BME280;50628;51.008;13.658;2022-07-23T13:29:09;99834.81;;;24.85;58.11
64292;BME280;50628;51.008;13.658;2022-07-23T13:34:10;99833.44;;;24.76;57.62
64292;BME280;50628;51.008;13.658;2022-07-23T13:39:12;99838.06;;;23.97;60.23
64292;BME280;50628;51.008;13.658;2022-07-23T13:44:15;99838.28;;;24.40;58.70
64292;BME280;50628;51.008;13.658;2022-07-23T13:49:17;99840.72;;;24.55;58.82
64292;BME280;50628;51.008;13.658;2022-07-23T13:54:19;99827.69;;;25.36;56.35
64292;BME280;50628;51.008;13.658;2022-07-23T13:59:22;99839.63;;;24.70;58.11
64292;BME280;50628;51.008;13.658;2022-07-23T14:04:24;99836.41;;;24.93;57.93
64292;BME280;50628;51.008;13.658;2022-07-23T14:09:26;99828.78;;;24.96;57.51
64292;BME280;50628;51.008;13.658;2022-07-23T14:14:30;99834.66;;;24.22;58.87
64292;BME280;50628;51.008;13.658;2022-07-23T14:19:34;99822.66;;;24.96;56.45
64292;BME280;50628;51.008;13.658;2022-07-23T14:24:36;99826.88;;;24.72;57.44
64292;BME280;50628;51.008;13.658;2022-07-23T14:29:42;99822.19;;;24.74;56.57
64292;BME280;50628;51.008;13.658;2022-07-23T14:34:44;99818.94;;;25.54;54.03
64292;BME280;50628;51.008;13.658;2022-07-23T14:39:45;99826.59;;;25.87;52.64
64292;BME280;50628;51.008;13.658;2022-07-23T14:44:49;99827.31;;;25.32;54.20
64292;BME280;50628;51.008;13.658;2022-07-23T14:49:50;99826.56;;;24.93;55.31
64292;BME280;50628;51.008;13.658;2022-07-23T14:54:52;99825.63;;;26.37;51.39
64292;BME280;50628;51.008;13.658;2022-07-23T14:59:57;99822.41;;;26.46;50.62
64292;BME280;50628;51.008;13.658;2022-07-23T15:04:59;99839.16;;;25.36;53.05
64292;BME280;50628;51.008;13.658;2022-07-23T15:10:03;99842.16;;;24.51;55.61
64292;BME280;50628;51.008;13.658;2022-07-23T15:15:13;99846.09;;;24.35;56.15
64292;BME280;50628;51.008;13.658;2022-07-23T15:20:15;99849.13;;;24.52;55.69
64292;BME280;50628;51.008;13.658;2022-07-23T15:25:17;99839.63;;;24.11;56.17
64292;BME280;50628;51.008;13.658;2022-07-23T15:30:20;99830.25;;;24.60;55.47
64292;BME280;50628;51.008;13.658;2022-07-23T15:35:22;99829.00;;;24.63;54.90
64292;BME280;50628;51.008;13.658;2022-07-23T15:40:27;99834.28;;;24.25;56.04
64292;BME280;50628;51.008;13.658;2022-07-23T15:45:31;99826.75;;;24.08;56.69
64292;BME280;50628;51.008;13.658;2022-07-23T15:50:33;99827.31;;;25.32;52.90
64292;BME280;50628;51.008;13.658;2022-07-23T15:55:35;99826.94;;;24.97;53.61
64292;BME280;50628;51.008;13.658;2022-07-23T16:00:51;99826.00;;;25.16;53.34
64292;BME280;50628;51.008;13.658;2022-07-23T16:05:56;99827.94;;;25.02;53.84
64292;BME280;50628;51.008;13.658;2022-07-23T16:11:02;99822.31;;;24.86;54.65
64292;BME280;50628;51.008;13.658;2022-07-23T16:16:16;99832.31;;;24.52;55.54
64292;BME280;50628;51.008;13.658;2022-07-23T16:21:36;99829.34;;;24.22;56.05
64292;BME280;50628;51.008;13.658;2022-07-23T16:26:43;99833.59;;;24.36;56.07
64292;BME280;50628;51.008;13.658;2022-07-23T16:31:46;99822.53;;;24.52;55.18
64292;BME280;50628;51.008;13.658;2022-07-23T16:36:51;99832.78;;;24.80;54.51
64292;BME280;50628;51.008;13.658;2022-07-23T16:41:56;99833.88;;;24.21;56.14
64292;BME280;50628;51.008;13.658;2022-07-23T16:47:03;99842.59;;;24.48;55.45
64292;BME280;50628;51.008;13.658;2022-07-23T16:52:05;99830.69;;;24.51;55.58
64292;BME280;50628;51.008;13.658;2022-07-23T16:57:07;99835.09;;;24.25;56.62
64292;BME280;50628;51.008;13.658;2022-07-23T17:02:10;99835.06;;;24.32;56.59
64292;BME280;50628;51.008;13.658;2022-07-23T17:07:12;99840.72;;;24.49;55.89
64292;BME280;50628;51.008;13.658;2022-07-23T17:12:16;99850.53;;;23.90;56.61
64292;BME280;50628;51.008;13.658;2022-07-23T17:17:19;99834.09;;;24.13;56.21
64292;BME280;50628;51.008;13.658;2022-07-23T17:22:21;99842.22;;;24.31;55.67
64292;BME280;50628;51.008;13.658;2022-07-23T17:27:23;99843.81;;;24.46;55.82
64292;BME280;50628;51.008;13.658;2022-07-23T17:32:27;99850.41;;;24.30;55.14
64292;BME280;50628;51.008;13.658;2022-07-23T17:37:28;99854.00;;;23.84;55.63
64292;BME280;50628;51.008;13.658;2022-07-23T17:42:30;99866.47;;;23.96;55.24
64292;BME280;50628;51.008;13.658;2022-07-23T17:47:34;99867.09;;;23.72;55.59
64292;BME280;50628;51.008;13.658;2022-07-23T17:52:43;99876.06;;;23.71;56.29
64292;BME280;50628;51.008;13.658;2022-07-23T17:57:45;99878.34;;;23.54;57.35
64292;BME280;50628;51.008;13.658;2022-07-23T18:02:48;99879.38;;;23.40;56.12
64292;BME280;50628;51.008;13.658;2022-07-23T18:07:51;99875.09;;;23.52;55.56
64292;BME280;50628;51.008;13.658;2022-07-23T18:12:53;99882.84;;;23.47;55.04
64292;BME280;50628;51.008;13.658;2022-07-23T18:17:56;99888.75;;;23.55;55.29
64292;BME280;50628;51.008;13.658;2022-07-23T18:22:57;99885.28;;;23.48;54.71
64292;BME280;50628;51.008;13.658;2022-07-23T18:27:59;99892.25;;;23.36;54.77
64292;BME280;50628;51.008;13.658;2022-07-23T18:33:03;99897.53;;;23.16;55.22
64292;BME280;50628;51.008;13.658;2022-07-23T18:38:05;99893.84;;;23.04;55.39
64292;BME280;50628;51.008;13.658;2022-07-23T18:43:08;99893.41;;;23.00;55.51
64292;BME280;50628;51.008;13.658;2022-07-23T18:48:12;99899.28;;;22.89;55.63
64292;BME280;50628;51.008;13.658;2022-07-23T18:53:14;99903.34;;;22.85;55.75
64292;BME280;50628;51.008;13.658;2022-07-23T18:58:16;99911.91;;;22.80;56.15
64292;BME280;50628;51.008;13.658;2022-07-23T19:03:19;99913.09;;;22.71;56.76
64292;BME280;50628;51.008;13.658;2022-07-23T19:08:21;99907.38;;;22.67;57.03
64292;BME280;50628;51.008;13.658;2022-07-23T19:13:23;99926.97;;;22.66;57.01
64292;BME280;50628;51.008;13.658;2022-07-23T19:18:26;99934.75;;;22.68;57.37
64292;BME280;50628;51.008;13.658;2022-07-23T19:23:28;99938.06;;;22.42;58.58
64292;BME280;50628;51.008;13.658;2022-07-23T19:28:29;99945.31;;;22.27;59.18
64292;BME280;50628;51.008;13.658;2022-07-23T19:33:33;99948.28;;;22.17;59.56
64292;BME280;50628;51.008;13.658;2022-07-23T19:38:35;99947.28;;;21.90;60.62
64292;BME280;50628;51.008;13.658;2022-07-23T19:43:36;99953.13;;;21.78;61.36
64292;BME280;50628;51.008;13.658;2022-07-23T19:48:39;99956.97;;;21.54;62.81
64292;BME280;50628;51.008;13.658;2022-07-23T19:53:41;99958.50;;;21.42;63.78
64292;BME280;50628;51.008;13.658;2022-07-23T19:58:43;99965.84;;;21.25;64.55
64292;BME280;50628;51.008;13.658;2022-07-23T20:03:46;99971.66;;;20.99;65.38
64292;BME280;50628;51.008;13.658;2022-07-23T20:08:49;99978.47;;;21.08;65.21
64292;BME280;50628;51.008;13.658;2022-07-23T20:13:51;99973.84;;;20.95;65.76
64292;BME280;50628;51.008;13.658;2022-07-23T20:18:54;99987.34;;;20.86;65.75
64292;BME280;50628;51.008;13.658;2022-07-23T20:23:56;99995.78;;;20.74;66.45
64292;BME280;50628;51.008;13.658;2022-07-23T20:28:58;99995.22;;;20.64;67.11
64292;BME280;50628;51.008;13.658;2022-07-23T20:34:01;100008.31;;;20.43;67.76
64292;BME280;50628;51.008;13.658;2022-07-23T20:39:05;100012.50;;;20.37;67.93
64292;BME280;50628;51.008;13.658;2022-07-23T20:44:07;100007.66;;;20.11;68.79
64292;BME280;50628;51.008;13.658;2022-07-23T20:49:12;100012.09;;;20.10;69.33
64292;BME280;50628;51.008;13.658;2022-07-23T20:54:17;100024.72;;;20.00;69.72
64292;BME280;50628;51.008;13.658;2022-07-23T20:59:19;100024.97;;;19.91;70.17
64292;BME280;50628;51.008;13.658;2022-07-23T21:04:22;100034.25;;;19.86;70.36
64292;BME280;50628;51.008;13.658;2022-07-23T21:09:24;100039.84;;;19.69;71.02
64292;BME280;50628;51.008;13.658;2022-07-23T21:14:26;100038.03;;;19.61;71.68
64292;BME280;50628;51.008;13.658;2022-07-23T21:19:29;100044.00;;;19.55;71.75
64292;BME280;50628;51.008;13.658;2022-07-23T21:24:31;100050.56;;;19.67;71.50
64292;BME280;50628;51.008;13.658;2022-07-23T21:29:33;100047.00;;;19.52;71.83
64292;BME280;50628;51.008;13.658;2022-07-23T21:34:36;100053.41;;;19.26;73.13
64292;BME280;50628;51.008;13.658;2022-07-23T21:39:38;100048.38;;;19.08;74.00
64292;BME280;50628;51.008;13.658;2022-07-23T21:44:39;100055.63;;;19.06;74.15
64292;BME280;50628;51.008;13.658;2022-07-23T21:49:42;100061.94;;;19.05;74.50
64292;BME280;50628;51.008;13.658;2022-07-23T21:54:44;100069.25;;;18.78;75.38
64292;BME280;50628;51.008;13.658;2022-07-23T21:59:46;100072.34;;;18.90;75.15
64292;BME280;50628;51.008;13.658;2022-07-23T22:04:51;100086.69;;;18.79;75.52
64292;BME280;50628;51.008;13.658;2022-07-23T22:09:53;100075.66;;;18.59;75.95
64292;BME280;50628;51.008;13.658;2022-07-23T22:14:54;100091.00;;;18.64;76.11
64292;BME280;50628;51.008;13.658;2022-07-23T22:19:57;100089.22;;;18.48;76.62
64292;BME280;50628;51.008;13.658;2022-07-23T22:25:00;100083.31;;;18.30;77.25
64292;BME280;50628;51.008;13.658;2022-07-23T22:30:02;100084.28;;;18.37;77.39
64292;BME280;50628;51.008;13.658;2022-07-23T22:35:06;100095.66;;;18.37;77.18
64292;BME280;50628;51.008;13.658;2022-07-23T22:40:10;100094.66;;;18.38;77.14
64292;BME280;50628;51.008;13.658;2022-07-23T22:45:12;100092.50;;;18.34;77.16
64292;BME280;50628;51.008;13.658;2022-07-23T22:50:16;100099.09;;;18.22;77.67
64292;BME280;50628;51.008;13.658;2022-07-23T22:55:17;100099.91;;;17.98;78.27
64292;BME280;50628;51.008;13.658;2022-07-23T23:00:19;100097.88;;;17.75;79.29
64292;BME280;50628;51.008;13.658;2022-07-23T23:05:22;100097.66;;;17.68;79.80
64292;BME280;50628;51.008;13.658;2022-07-23T23:10:24;100106.75;;;17.74;79.70
64292;BME280;50628;51.008;13.658;2022-07-23T23:15:26;100091.78;;;17.74;79.38
64292;BME280;50628;51.008;13.658;2022-07-23T23:20:30;100107.84;;;17.63;78.75
64292;BME280;50628;51.008;13.658;2022-07-23T23:25:31;100109.19;;;17.67;78.10
64292;BME280;50628;51.008;13.658;2022-07-23T23:30:33;100109.19;;;17.59;78.29
64292;BME280;50628;51.008;13.658;2022-07-23T23:35:36;100119.84;;;17.58;78.11
64292;BME280;50628;51.008;13.658;2022-07-23T23:40:38;100118.81;;;17.42;79.08
64292;BME280;50628;51.008;13.658;2022-07-23T23:45:40;100124.53;;;17.29;80.17
64292;BME280;50628;51.008;13.658;2022-07-23T23:50:43;100131.50;;;17.13;80.83
64292;BME280;50628;51.008;13.658;2022-07-23T23:55:45;100128.72;;;16.88;82.10
